Time;durP1;ratioP1;P1;durP2;ratioP2;P2;SDS_P1;SDS_P2;PMS_P1;PMS_P2;Temp;Humidity;BMP_temperature;BMP_pressure;BME280_temperature;BME280_humidity;BME280_pressure;Samples;Min_cycle;Max_cycle;Signal;HPM_P1;HPM_P2
2022/04/19 00:00:42;;;;;;;0.05;0.00;;;8.40;91.80;;;;;;5114154;28;20043;-80
2022/04/19 00:03:09;;;;;;;0.15;0.15;;;8.40;93.00;;;;;;5112830;28;20069;-79
2022/04/19 00:05:38;;;;;;;0.00;0.00;;;8.30;92.80;;;;;;5114042;28;20088;-79
2022/04/19 00:08:05;;;;;;;0.00;0.00;;;8.30;91.90;;;;;;5097396;28;20120;-79
2022/04/19 00:10:31;;;;;;;0.25;0.10;;;8.30;91.70;;;;;;5113901;28;20044;-79
2022/04/19 00:12:59;;;;;;;0.10;0.03;;;8.30;92.30;;;;;;5114244;28;20054;-79
2022/04/19 00:15:27;;;;;;;0.00;0.00;;;8.20;92.70;;;;;;5114276;28;20044;-79
2022/04/19 00:17:54;;;;;;;0.10;0.10;;;8.20;94.00;;;;;;5113671;28;20487;-79
2022/04/19 00:20:21;;;;;;;0.00;0.00;;;8.10;93.60;;;;;;5113999;28;20116;-79
2022/04/19 00:22:49;;;;;;;1.65;0.95;;;8.00;93.30;;;;;;5113640;28;20047;-79
2022/04/19 00:25:16;;;;;;;1.20;0.05;;;8.00;93.80;;;;;;5113641;28;20122;-79
2022/04/19 00:27:42;;;;;;;0.00;0.00;;;8.00;94.00;;;;;;5113565;28;20043;-79
2022/04/19 00:30:08;;;;;;;0.10;0.00;;;7.90;94.90;;;;;;5096489;28;20047;-79
2022/04/19 00:32:34;;;;;;;2.55;0.20;;;7.90;94.50;;;;;;5096395;28;20139;-79
2022/04/19 00:35:01;;;;;;;0.10;0.10;;;7.90;94.30;;;;;;5096569;28;20091;-79
2022/04/19 00:37:27;;;;;;;0.00;0.00;;;7.90;94.70;;;;;;5096527;28;20450;-80
2022/04/19 00:39:53;;;;;;;0.15;0.00;;;7.80;96.10;;;;;;5113375;28;20043;-79
2022/04/19 00:42:19;;;;;;;0.03;0.00;;;7.70;95.00;;;;;;5113563;28;20046;-79
2022/04/19 00:44:45;;;;;;;0.00;0.00;;;7.70;97.20;;;;;;5113279;28;20134;-79
2022/04/19 00:47:12;;;;;;;1.48;0.43;;;7.60;96.60;;;;;;5112864;28;20142;-80
2022/04/19 00:49:42;;;;;;;0.30;0.30;;;7.70;96.80;;;;;;5113341;28;20051;-79
2022/04/19 00:52:09;;;;;;;0.13;0.13;;;7.70;97.40;;;;;;5113129;28;20051;-79
2022/04/19 00:54:35;;;;;;;0.30;0.20;;;7.70;96.20;;;;;;5113141;28;20061;-80
2022/04/19 00:57:02;;;;;;;1.73;0.40;;;7.60;96.10;;;;;;5096416;28;20039;-79
2022/04/19 00:59:27;;;;;;;0.28;0.28;;;7.60;97.80;;;;;;5113118;28;20047;-79
2022/04/19 01:01:53;;;;;;;0.73;0.10;;;7.60;98.00;;;;;;5113333;28;20058;-79
2022/04/19 01:04:19;;;;;;;0.25;0.25;;;7.60;97.10;;;;;;5113006;28;20055;-79
2022/04/19 01:06:45;;;;;;;0.00;0.00;;;7.60;98.70;;;;;;5095974;28;20101;-80
2022/04/19 01:09:12;;;;;;;1.25;0.10;;;7.50;97.00;;;;;;5096389;28;20059;-79
2022/04/19 01:14:23;;;;;;;;;;;7.50;98.80;;;;;;5115349;28;20043;-79
2022/04/19 01:16:49;;;;;;;0.10;0.10;;;7.50;98.50;;;;;;5117316;28;19926;-79
2022/04/19 01:19:15;;;;;;;0.00;0.00;;;7.50;98.00;;;;;;5100285;28;20073;-79
2022/04/19 01:21:54;;;;;;;1.38;1.10;;;7.50;99.60;;;;;;5116760;28;20091;-80
2022/04/19 01:24:21;;;;;;;4.28;0.10;;;7.40;98.70;;;;;;5117196;28;20112;-79
2022/04/19 01:26:48;;;;;;;0.00;0.00;;;7.40;99.80;;;;;;5100295;28;20075;-79
2022/04/19 01:29:15;;;;;;;0.32;0.32;;;7.30;99.90;;;;;;5116758;28;20104;-79
2022/04/19 01:31:42;;;;;;;0.28;0.10;;;7.30;98.40;;;;;;5117052;28;20495;-79
2022/04/19 01:34:08;;;;;;;0.08;0.00;;;7.30;99.90;;;;;;5116809;28;20054;-79
2022/04/19 01:36:38;;;;;;;0.13;0.10;;;7.10;99.90;;;;;;5117060;28;20066;-79
2022/04/19 01:39:06;;;;;;;0.25;0.25;;;7.10;99.60;;;;;;5116875;28;20043;-79
2022/04/19 01:41:32;;;;;;;0.45;0.03;;;7.10;99.90;;;;;;5117086;28;20097;-79
2022/04/19 01:43:59;;;;;;;1.75;0.90;;;7.10;99.90;;;;;;5116675;28;20048;-79
2022/04/19 01:46:28;;;;;;;0.00;0.00;;;7.00;99.90;;;;;;5116223;28;20135;-80
2022/04/19 01:48:57;;;;;;;0.00;0.00;;;7.00;99.90;;;;;;5116592;28;20056;-79
2022/04/19 01:51:24;;;;;;;0.00;0.00;;;7.00;99.90;;;;;;5116775;28;20083;-79
2022/04/19 01:53:50;;;;;;;0.00;0.00;;;7.00;99.90;;;;;;5099537;28;20465;-80
2022/04/19 01:56:16;;;;;;;0.00;0.00;;;6.90;99.90;;;;;;5116613;28;20055;-79
2022/04/19 01:58:42;;;;;;;0.05;0.00;;;6.90;99.90;;;;;;5099640;28;20146;-79
2022/04/19 02:01:08;;;;;;;0.00;0.00;;;6.90;99.90;;;;;;5115946;28;20470;-79
2022/04/19 02:03:34;;;;;;;0.10;0.00;;;6.90;99.90;;;;;;5116553;28;20043;-79
2022/04/19 02:06:01;;;;;;;0.68;0.10;;;6.80;99.90;;;;;;5099437;28;20139;-79
2022/04/19 02:08:29;;;;;;;0.20;0.20;;;6.90;99.90;;;;;;5099413;28;20245;-79
2022/04/19 02:10:54;;;;;;;0.00;0.00;;;6.70;99.90;;;;;;5116227;28;20077;-79
2022/04/19 02:13:20;;;;;;;0.52;0.13;;;6.60;99.90;;;;;;5099284;28;20048;-79
2022/04/19 02:15:46;;;;;;;0.00;0.00;;;6.70;99.90;;;;;;5099023;28;20063;-79
2022/04/19 02:18:12;;;;;;;0.00;0.00;;;6.70;99.90;;;;;;5099349;28;20055;-79
2022/04/19 02:20:38;;;;;;;0.13;0.10;;;6.60;99.90;;;;;;5115978;28;20043;-79
2022/04/19 02:23:05;;;;;;;0.00;0.00;;;6.70;99.90;;;;;;5115982;28;20181;-79
2022/04/19 02:25:30;;;;;;;0.40;0.40;;;6.60;99.90;;;;;;5097894;28;20078;-79
2022/04/19 02:27:56;;;;;;;0.32;0.20;;;6.60;99.90;;;;;;5115595;28;20117;-79
2022/04/19 02:30:22;;;;;;;0.85;0.00;;;6.60;99.90;;;;;;5115264;28;20043;-80
2022/04/19 02:32:49;;;;;;;0.15;0.15;;;6.60;99.90;;;;;;5115745;28;20052;-79
2022/04/19 02:35:18;;;;;;;0.00;0.00;;;6.60;99.90;;;;;;5116287;28;20036;-80
2022/04/19 02:37:51;;;;;;;0.10;0.10;;;6.60;99.90;;;;;;5115758;28;20061;-79
2022/04/19 02:40:21;;;;;;;0.05;0.05;;;6.60;99.90;;;;;;5098679;28;20040;-79
2022/04/19 02:42:48;;;;;;;2.03;0.45;;;6.60;99.90;;;;;;5115541;28;20410;-79
2022/04/19 02:45:14;;;;;;;0.47;0.20;;;6.50;99.90;;;;;;5098447;28;20490;-79
2022/04/19 02:47:41;;;;;;;0.10;0.10;;;6.50;99.90;;;;;;5115037;28;20051;-79
2022/04/19 02:50:07;;;;;;;0.17;0.17;;;6.50;99.90;;;;;;5115487;28;20051;-79
2022/04/19 02:52:33;;;;;;;0.40;0.10;;;6.40;99.90;;;;;;5115501;28;20132;-79
2022/04/19 02:54:59;;;;;;;0.00;0.00;;;6.40;99.90;;;;;;5115363;28;20133;-79
2022/04/19 02:57:25;;;;;;;0.00;0.00;;;6.40;99.90;;;;;;5115027;28;20051;-80
2022/04/19 02:59:51;;;;;;;0.03;0.00;;;6.40;99.90;;;;;;5098293;28;20100;-80
2022/04/19 03:02:18;;;;;;;0.10;0.10;;;6.30;99.90;;;;;;5115221;28;20055;-80
2022/04/19 03:04:43;;;;;;;0.00;0.00;;;6.30;99.90;;;;;;5115337;28;20448;-79
2022/04/19 03:07:09;;;;;;;0.10;0.10;;;6.30;99.90;;;;;;5114976;28;20149;-80
2022/04/19 03:09:35;;;;;;;0.00;0.00;;;6.20;99.90;;;;;;5115086;28;20036;-79
2022/04/19 03:12:01;;;;;;;0.65;0.00;;;6.20;99.90;;;;;;5098040;28;20148;-79
2022/04/19 03:14:27;;;;;;;2.72;0.05;;;6.20;99.90;;;;;;5115011;28;20113;-79
2022/04/19 03:16:53;;;;;;;0.20;0.20;;;6.10;99.90;;;;;;5115430;28;20039;-80
2022/04/19 03:19:18;;;;;;;1.10;0.13;;;6.10;99.90;;;;;;5114918;28;20093;-79
2022/04/19 03:21:44;;;;;;;0.00;0.00;;;6.00;99.90;;;;;;5114869;28;20487;-79
2022/04/19 03:29:38;;;;;;;0.80;0.28;;;6.00;99.90;;;;;;5114485;28;20056;-79
2022/04/19 03:32:05;;;;;;;0.00;0.00;;;6.00;99.90;;;;;;5114554;28;20051;-80
2022/04/19 03:34:30;;;;;;;0.20;0.20;;;6.00;99.90;;;;;;5114460;28;20446;-80
2022/04/19 03:36:56;;;;;;;1.45;0.80;;;6.00;99.90;;;;;;5114209;28;20118;-80
2022/04/19 03:39:22;;;;;;;0.45;0.45;;;6.00;99.90;;;;;;5097611;28;20047;-80
2022/04/19 03:41:47;;;;;;;0.88;0.47;;;5.90;99.90;;;;;;5114489;28;20433;-80
2022/04/19 03:44:13;;;;;;;2.90;1.13;;;5.90;99.90;;;;;;5114438;28;20035;-79
2022/04/19 03:49:26;;;;;;;0.15;0.10;;;5.90;99.90;;;;;;5114297;28;20048;-79
2022/04/19 03:51:52;;;;;;;0.00;0.00;;;5.90;99.90;;;;;;5097721;28;20051;-80
2022/04/19 03:54:17;;;;;;;0.00;0.00;;;5.90;99.90;;;;;;5114195;28;20040;-80
2022/04/19 03:56:43;;;;;;;0.20;0.10;;;5.90;99.90;;;;;;5097319;28;20032;-80
2022/04/19 03:59:10;;;;;;;0.38;0.00;;;5.90;99.90;;;;;;5096898;28;20052;-80
2022/04/19 04:01:38;;;;;;;0.47;0.40;;;5.90;99.90;;;;;;5097238;28;20112;-80
2022/04/19 04:04:07;;;;;;;0.00;0.00;;;6.00;99.90;;;;;;5113848;28;20475;-80
2022/04/19 04:06:34;;;;;;;0.20;0.10;;;5.90;99.90;;;;;;5113902;28;20043;-80
2022/04/19 04:08:59;;;;;;;0.10;0.10;;;5.90;99.90;;;;;;5114411;28;20147;-80
2022/04/19 04:11:25;;;;;;;0.20;0.20;;;5.90;99.90;;;;;;5096928;28;20043;-80
2022/04/19 04:13:50;;;;;;;0.30;0.30;;;5.80;99.90;;;;;;5096738;28;20042;-80
2022/04/19 04:16:16;;;;;;;0.20;0.20;;;5.80;99.90;;;;;;5113824;28;20436;-80
2022/04/19 04:18:42;;;;;;;0.30;0.30;;;5.80;99.90;;;;;;5113692;28;20488;-80
2022/04/19 04:21:07;;;;;;;0.10;0.10;;;5.90;99.90;;;;;;5113849;28;20372;-80
2022/04/19 04:23:33;;;;;;;5.88;1.75;;;5.90;99.90;;;;;;5114407;28;20047;-80
2022/04/19 04:25:59;;;;;;;0.10;0.10;;;5.90;99.90;;;;;;5113678;28;20364;-80
2022/04/19 04:28:25;;;;;;;3.55;0.45;;;5.90;99.90;;;;;;5113684;28;20097;-80
2022/04/19 04:30:51;;;;;;;0.00;0.00;;;5.90;99.90;;;;;;5113564;28;20047;-80
2022/04/19 04:33:17;;;;;;;0.47;0.47;;;5.80;99.90;;;;;;5113117;28;20050;-80
2022/04/19 04:35:42;;;;;;;0.47;0.47;;;5.70;99.90;;;;;;5113350;28;20047;-80
2022/04/19 04:38:08;;;;;;;0.10;0.08;;;5.70;99.90;;;;;;5113432;28;20047;-80
2022/04/19 04:40:34;;;;;;;1.02;0.10;;;5.70;99.90;;;;;;5113386;28;20044;-80
2022/04/19 04:42:59;;;;;;;2.05;0.30;;;5.60;99.90;;;;;;5113572;28;20051;-80
2022/04/19 04:45:26;;;;;;;0.45;0.45;;;5.60;99.90;;;;;;5113257;28;20044;-80
2022/04/19 04:50:37;;;;;;;0.00;0.00;;;5.60;99.90;;;;;;5113532;28;20087;-80
2022/04/19 04:53:03;;;;;;;0.20;0.10;;;5.60;99.90;;;;;;5096824;28;20087;-80
2022/04/19 04:55:28;;;;;;;0.10;0.10;;;5.60;99.90;;;;;;5113294;28;20036;-80
2022/04/19 04:57:58;;;;;;;0.10;0.10;;;5.60;99.90;;;;;;5113100;28;20048;-80
2022/04/19 05:00:25;;;;;;;1.02;0.10;;;5.60;99.90;;;;;;5096496;28;20052;-80
2022/04/19 05:02:51;;;;;;;0.20;0.20;;;5.60;99.90;;;;;;5096119;28;20059;-80
2022/04/19 05:05:17;;;;;;;0.20;0.20;;;5.60;99.90;;;;;;5112929;28;20047;-80
2022/04/19 05:07:43;;;;;;;0.00;0.00;;;5.60;99.90;;;;;;5112686;28;20061;-80
2022/04/19 05:10:09;;;;;;;0.13;0.13;;;5.70;99.90;;;;;;5113106;28;20044;-80
2022/04/19 05:12:35;;;;;;;1.30;0.43;;;5.80;99.90;;;;;;5113025;28;20391;-80
2022/04/19 05:15:01;;;;;;;0.28;0.20;;;5.80;99.90;;;;;;5112981;28;20058;-80
2022/04/19 05:17:27;;;;;;;1.00;0.50;;;5.90;99.90;;;;;;5113171;28;20056;-80
2022/04/19 05:19:55;;;;;;;5.93;1.00;;;6.00;99.90;;;;;;5112931;28;20040;-80
2022/04/19 05:22:20;;;;;;;0.32;0.32;;;6.10;99.90;;;;;;5096243;28;20440;-80
2022/04/19 05:24:46;;;;;;;0.45;0.38;;;6.10;99.90;;;;;;5095959;28;20052;-80
2022/04/19 05:27:12;;;;;;;0.60;0.60;;;6.20;99.90;;;;;;5112473;28;20093;-80
2022/04/19 05:29:37;;;;;;;0.10;0.00;;;6.30;99.90;;;;;;5113281;28;20047;-80
2022/04/19 05:32:04;;;;;;;0.13;0.10;;;6.30;99.90;;;;;;5112900;28;20044;-80
2022/04/19 05:34:30;;;;;;;0.00;0.00;;;6.40;99.90;;;;;;5112639;28;20047;-80
2022/04/19 05:36:55;;;;;;;0.00;0.00;;;6.50;99.90;;;;;;5112809;28;20134;-80
2022/04/19 05:39:21;;;;;;;0.20;0.20;;;6.50;99.90;;;;;;5095690;28;20445;-80
2022/04/19 05:41:47;;;;;;;0.43;0.43;;;6.60;99.90;;;;;;5112659;28;20154;-80
2022/04/19 05:44:12;;;;;;;0.73;0.45;;;6.70;99.90;;;;;;5112631;28;20482;-80
2022/04/19 05:46:38;;;;;;;0.57;0.10;;;6.70;99.90;;;;;;5112938;28;20089;-81
2022/04/19 05:49:07;;;;;;;0.00;0.00;;;6.80;99.90;;;;;;5112726;28;20092;-80
2022/04/19 05:51:33;;;;;;;0.88;0.47;;;6.90;99.90;;;;;;5095833;28;20407;-80
2022/04/19 05:54:00;;;;;;;0.00;0.00;;;7.00;99.90;;;;;;5112902;28;20453;-80
2022/04/19 05:56:26;;;;;;;0.13;0.13;;;7.10;99.90;;;;;;5112520;28;20054;-81
2022/04/19 05:58:52;;;;;;;1.85;0.63;;;7.10;99.90;;;;;;5095855;28;20398;-80
2022/04/19 06:01:18;;;;;;;1.98;0.52;;;7.30;99.90;;;;;;5098295;28;20047;-80
2022/04/19 06:06:29;;;;;;;;;;;7.50;99.90;;;;;;5116812;28;20079;-80
2022/04/19 06:08:55;;;;;;;0.00;0.00;;;7.70;99.90;;;;;;5115983;28;19997;-81
2022/04/19 06:11:21;;;;;;;0.20;0.20;;;7.90;99.90;;;;;;5099253;28;20191;-80
2022/04/19 06:13:47;;;;;;;0.00;0.00;;;8.20;99.90;;;;;;5116238;28;20043;-80
2022/04/19 06:16:12;;;;;;;1.38;0.75;;;8.30;99.90;;;;;;5099095;28;20044;-81
2022/04/19 06:18:38;;;;;;;0.00;0.00;;;8.50;99.90;;;;;;5116130;28;20495;-80
2022/04/19 06:21:05;;;;;;;0.08;0.00;;;8.70;99.90;;;;;;5116125;28;20040;-80
2022/04/19 06:23:34;;;;;;;0.00;0.00;;;8.90;99.90;;;;;;5098971;28;20134;-80
2022/04/19 06:26:01;;;;;;;1.27;0.20;;;9.30;99.90;;;;;;5116170;28;20132;-80
2022/04/19 06:28:27;;;;;;;0.10;0.10;;;9.80;99.90;;;;;;5116471;28;20031;-80
2022/04/19 06:30:53;;;;;;;0.00;0.00;;;10.10;99.90;;;;;;5115861;28;20036;-80
2022/04/19 06:33:19;;;;;;;1.27;0.10;;;10.30;99.90;;;;;;5115720;28;20100;-80
2022/04/19 06:35:44;;;;;;;0.52;0.52;;;10.40;99.90;;;;;;5115617;28;20394;-80
2022/04/19 06:38:10;;;;;;;0.55;0.52;;;10.40;99.90;;;;;;5115670;28;20423;-80
2022/04/19 06:40:36;;;;;;;0.25;0.25;;;10.60;99.90;;;;;;5115937;28;20434;-80
2022/04/19 06:43:02;;;;;;;0.00;0.00;;;11.00;99.90;;;;;;5116031;28;20444;-80
2022/04/19 06:45:28;;;;;;;0.10;0.00;;;11.40;99.20;;;;;;5115490;28;20483;-80
2022/04/19 06:48:02;;;;;;;0.10;0.10;;;11.70;98.30;;;;;;5098611;28;20067;-80
2022/04/19 06:50:28;;;;;;;0.10;0.10;;;12.30;97.10;;;;;;5115569;28;20563;-80
2022/04/19 06:52:54;;;;;;;1.75;0.75;;;13.00;95.40;;;;;;5115617;28;20396;-80
2022/04/19 06:55:20;;;;;;;0.47;0.20;;;13.90;92.90;;;;;;5115524;28;20036;-80
2022/04/19 06:57:49;;;;;;;0.38;0.38;;;14.80;90.90;;;;;;5098781;28;20058;-80
2022/04/19 07:00:17;;;;;;;0.00;0.00;;;15.30;84.40;;;;;;5115472;28;20046;-80
2022/04/19 07:02:44;;;;;;;0.15;0.15;;;15.90;82.10;;;;;;5098065;28;20483;-81
2022/04/19 07:05:11;;;;;;;0.00;0.00;;;16.40;81.50;;;;;;5115092;28;20051;-80
2022/04/19 07:07:42;;;;;;;0.08;0.08;;;16.90;77.40;;;;;;5097913;28;20054;-80
2022/04/19 07:10:10;;;;;;;0.00;0.00;;;17.00;77.40;;;;;;5115819;28;20043;-80
2022/04/19 07:12:36;;;;;;;0.10;0.00;;;17.50;76.90;;;;;;5115315;28;20071;-80
2022/04/19 07:15:02;;;;;;;0.10;0.10;;;17.90;73.10;;;;;;5098348;28;20059;-80
2022/04/19 07:17:27;;;;;;;0.57;0.38;;;17.40;70.20;;;;;;5098049;28;20067;-80
2022/04/19 07:28:11;;;;;;;0.10;0.00;;;17.30;72.30;;;;;;5114485;28;20051;-80
2022/04/19 07:30:37;;;;;;;0.00;0.00;;;17.60;68.90;;;;;;5115424;28;20185;-80
2022/04/19 07:33:05;;;;;;;0.47;0.00;;;18.00;71.20;;;;;;5114634;28;20031;-80
2022/04/19 07:35:31;;;;;;;0.40;0.10;;;18.40;69.60;;;;;;5097648;28;20043;-80
2022/04/19 07:37:56;;;;;;;0.00;0.00;;;18.50;66.70;;;;;;5114694;28;20100;-80
2022/04/19 07:40:22;;;;;;;0.00;0.00;;;18.40;66.00;;;;;;5097626;28;20043;-80
2022/04/19 07:42:48;;;;;;;0.20;0.10;;;18.00;67.30;;;;;;5114482;28;20043;-80
2022/04/19 07:45:14;;;;;;;1.45;0.70;;;18.10;68.80;;;;;;5114618;28;20043;-80
2022/04/19 07:47:41;;;;;;;0.00;0.00;;;17.70;67.20;;;;;;5113690;28;20079;-81
2022/04/19 07:50:07;;;;;;;0.20;0.20;;;17.60;68.10;;;;;;5114492;28;20048;-81
2022/04/19 07:52:33;;;;;;;0.10;0.00;;;17.60;68.90;;;;;;5114384;28;20048;-81
2022/04/19 07:54:58;;;;;;;0.00;0.00;;;17.70;71.20;;;;;;5097339;28;20051;-80
2022/04/19 07:57:24;;;;;;;0.20;0.20;;;17.60;68.70;;;;;;5113929;28;20052;-80
2022/04/19 07:59:53;;;;;;;1.45;0.70;;;17.90;68.60;;;;;;5097251;28;20052;-81
2022/04/19 08:02:20;;;;;;;0.00;0.00;;;17.90;68.80;;;;;;5097380;28;20043;-81
2022/04/19 08:04:46;;;;;;;0.32;0.15;;;17.80;67.90;;;;;;5097233;28;20089;-81
2022/04/19 08:07:12;;;;;;;0.30;0.08;;;17.80;68.00;;;;;;5113864;28;20482;-81
2022/04/19 08:09:38;;;;;;;0.00;0.00;;;17.80;68.50;;;;;;5097075;28;20090;-81
2022/04/19 08:12:05;;;;;;;1.02;0.40;;;17.70;68.90;;;;;;5113660;28;20066;-81
2022/04/19 08:14:31;;;;;;;1.55;0.70;;;17.70;68.00;;;;;;5114065;28;20126;-81
2022/04/19 08:16:57;;;;;;;0.00;0.00;;;17.60;67.80;;;;;;5097014;28;20059;-81
2022/04/19 08:19:23;;;;;;;1.45;0.25;;;17.40;67.30;;;;;;5113842;28;20047;-81
2022/04/19 08:21:48;;;;;;;1.55;0.55;;;17.20;67.30;;;;;;5113602;28;20039;-81
2022/04/19 08:24:14;;;;;;;0.10;0.10;;;16.90;67.70;;;;;;5112824;28;20040;-81
2022/04/19 08:26:40;;;;;;;0.10;0.10;;;16.60;67.00;;;;;;5113477;28;20039;-81
2022/04/19 08:29:06;;;;;;;0.17;0.10;;;16.50;69.20;;;;;;5096468;28;20071;-81
2022/04/19 08:31:31;;;;;;;0.25;0.25;;;16.50;69.50;;;;;;5113503;28;20130;-81
2022/04/19 08:33:57;;;;;;;0.00;0.00;;;16.30;68.40;;;;;;5096999;28;20083;-81
2022/04/19 08:36:22;;;;;;;0.75;0.30;;;16.30;69.60;;;;;;5113511;28;20047;-81
2022/04/19 08:38:48;;;;;;;0.30;0.15;;;16.30;69.30;;;;;;5113463;28;20035;-81
2022/04/19 08:41:17;;;;;;;0.10;0.10;;;16.50;70.70;;;;;;5113248;28;20048;-81
2022/04/19 08:43:45;;;;;;;1.35;0.10;;;16.60;71.10;;;;;;5113450;28;20039;-81
2022/04/19 08:46:11;;;;;;;0.00;0.00;;;16.60;69.70;;;;;;5096484;28;20050;-81
2022/04/19 08:48:38;;;;;;;0.00;0.00;;;16.50;69.30;;;;;;5113182;28;20056;-81
2022/04/19 08:51:08;;;;;;;0.65;0.63;;;16.50;70.70;;;;;;5113368;28;20502;-81
2022/04/19 08:59:35;;;;;;;0.13;0.13;;;16.90;69.40;;;;;;5034905;28;20048;-81
2022/04/19 09:02:01;;;;;;;0.22;0.22;;;17.00;68.70;;;;;;5035570;28;20142;-81
2022/04/19 09:04:27;;;;;;;2.28;0.38;;;16.80;68.40;;;;;;5034907;28;20500;-81
2022/04/19 09:06:55;;;;;;;0.10;0.00;;;16.90;68.00;;;;;;5035125;28;20153;-81
2022/04/19 09:09:23;;;;;;;0.22;0.10;;;16.80;67.30;;;;;;5035201;28;20044;-81
2022/04/19 09:11:52;;;;;;;0.00;0.00;;;16.90;67.00;;;;;;5034788;28;20489;-81
2022/04/19 09:14:18;;;;;;;0.70;0.45;;;16.90;66.20;;;;;;5034832;28;20574;-81
2022/04/19 09:16:44;;;;;;;0.00;0.00;;;16.80;65.10;;;;;;5034431;28;20069;-81
2022/04/19 09:19:10;;;;;;;0.00;0.00;;;17.00;65.90;;;;;;5034568;28;20053;-81
2022/04/19 09:21:40;;;;;;;0.10;0.03;;;17.30;64.10;;;;;;5018322;28;20135;-81
2022/04/19 09:24:28;;;;;;;0.00;0.00;;;17.50;62.80;;;;;;5034772;28;20092;-81
2022/04/19 09:26:54;;;;;;;0.00;0.00;;;17.80;63.60;;;;;;5034633;28;20087;-81
2022/04/19 09:29:26;;;;;;;0.00;0.00;;;17.90;62.40;;;;;;5039701;28;20104;-81
2022/04/19 09:31:57;;;;;;;0.05;0.00;;;17.90;60.40;;;;;;5099982;28;20059;-81
2022/04/19 09:34:34;;;;;;;0.00;0.00;;;18.00;59.30;;;;;;5096138;28;20433;-81
2022/04/19 09:37:13;;;;;;;0.20;0.05;;;18.00;60.00;;;;;;5116829;28;20554;-81
2022/04/19 09:39:44;;;;;;;0.00;0.00;;;18.10;60.10;;;;;;5117203;28;20050;-81
2022/04/19 09:42:12;;;;;;;0.03;0.00;;;18.20;60.00;;;;;;5100427;28;20096;-81
2022/04/19 09:44:50;;;;;;;0.00;0.00;;;18.30;58.10;;;;;;5116910;28;20058;-81
2022/04/19 09:47:17;;;;;;;0.00;0.00;;;18.20;54.30;;;;;;5116190;28;20099;-81
2022/04/19 09:49:54;;;;;;;0.00;0.00;;;18.20;53.60;;;;;;5116411;28;20051;-81
2022/04/19 09:52:23;;;;;;;0.10;0.10;;;18.30;55.40;;;;;;5099902;28;20573;-81
2022/04/19 09:55:06;;;;;;;0.00;0.00;;;18.50;57.20;;;;;;5116697;28;20051;-81
2022/04/19 09:57:33;;;;;;;0.00;0.00;;;18.40;54.90;;;;;;5116696;28;20040;-81
2022/04/19 10:00:00;;;;;;;0.10;0.10;;;18.40;56.90;;;;;;5116575;28;20043;-81
2022/04/19 10:08:13;;;;;;;0.03;0.00;;;18.10;54.80;;;;;;5116281;28;20044;-81
2022/04/19 10:10:41;;;;;;;0.00;0.00;;;18.00;55.70;;;;;;5116959;28;20039;-81
2022/04/19 10:13:07;;;;;;;0.00;0.00;;;18.10;55.60;;;;;;5116303;28;20051;-81
2022/04/19 10:15:37;;;;;;;0.00;0.00;;;18.20;54.40;;;;;;5116137;28;20483;-81
2022/04/19 10:18:04;;;;;;;0.00;0.00;;;18.40;54.40;;;;;;5116066;28;20050;-81
2022/04/19 10:20:32;;;;;;;0.00;0.00;;;18.70;54.40;;;;;;5099215;28;20092;-81
2022/04/19 10:23:03;;;;;;;0.00;0.00;;;18.70;51.70;;;;;;5116033;28;20040;-81
2022/04/19 10:25:41;;;;;;;0.00;0.00;;;18.60;51.00;;;;;;5099545;28;20043;-80
2022/04/19 10:28:08;;;;;;;0.00;0.00;;;18.70;53.30;;;;;;5098661;28;20035;-81
2022/04/19 10:30:36;;;;;;;0.00;0.00;;;18.60;52.50;;;;;;5116034;28;20059;-80
2022/04/19 10:33:40;;;;;;;0.38;0.15;;;18.50;50.20;;;;;;5098564;28;20054;-81
2022/04/19 10:36:36;;;;;;;0.00;0.00;;;18.50;50.50;;;;;;5099447;28;20547;-80
2022/04/19 10:39:11;;;;;;;0.00;0.00;;;18.70;52.40;;;;;;5116079;28;20122;-81
2022/04/19 10:41:52;;;;;;;0.08;0.00;;;18.90;52.10;;;;;;5098700;28;20499;-80
2022/04/19 10:44:30;;;;;;;0.00;0.00;;;19.10;52.90;;;;;;5115812;28;20047;-80
2022/04/19 10:47:19;;;;;;;1.55;0.28;;;19.20;51.70;;;;;;5097727;28;20056;-81
2022/04/19 10:49:57;;;;;;;0.00;0.00;;;19.40;51.00;;;;;;5115667;28;20039;-81
2022/04/19 10:52:40;;;;;;;0.00;0.00;;;19.30;50.80;;;;;;5098430;28;20048;-81
2022/04/19 10:55:23;;;;;;;0.00;0.00;;;19.20;50.70;;;;;;5098398;28;20051;-81
2022/04/19 10:58:21;;;;;;;0.00;0.00;;;19.30;49.80;;;;;;5115403;28;20513;-81
2022/04/19 11:00:48;;;;;;;0.00;0.00;;;19.30;48.50;;;;;;5098837;28;20043;-80
2022/04/19 11:03:14;;;;;;;0.00;0.00;;;19.40;50.00;;;;;;5115506;28;20052;-81
2022/04/19 11:05:51;;;;;;;0.00;0.00;;;19.30;49.30;;;;;;5115226;28;20048;-81
2022/04/19 11:08:32;;;;;;;0.00;0.00;;;19.20;49.10;;;;;;5115157;28;20036;-80
2022/04/19 11:11:20;;;;;;;0.00;0.00;;;19.20;50.40;;;;;;5115201;28;20044;-81
2022/04/19 11:14:16;;;;;;;0.00;0.00;;;19.30;50.60;;;;;;5115280;28;20040;-80
2022/04/19 11:16:42;;;;;;;0.00;0.00;;;19.30;49.60;;;;;;5115011;28;20044;-81
2022/04/19 11:19:20;;;;;;;0.00;0.00;;;19.20;49.40;;;;;;5114988;28;20046;-80
2022/04/19 11:21:52;;;;;;;0.10;0.10;;;19.30;49.80;;;;;;5114849;28;20479;-80
2022/04/19 11:24:56;;;;;;;0.00;0.00;;;19.40;51.50;;;;;;5098175;28;20101;-81
2022/04/19 11:27:22;;;;;;;0.00;0.00;;;19.50;50.50;;;;;;5114489;28;20509;-81
2022/04/19 11:29:50;;;;;;;0.10;0.00;;;19.40;50.10;;;;;;5114525;28;20074;-81
2022/04/19 11:32:24;;;;;;;0.00;0.00;;;19.60;50.90;;;;;;5114974;28;20044;-81
2022/04/19 11:34:57;;;;;;;;;;;19.50;49.90;;;;;;5115022;28;20130;-81
2022/04/19 11:37:23;;;;;;;0.00;0.00;;;19.70;49.90;;;;;;5114951;28;20301;-81
2022/04/19 11:48:03;;;;;;;0.00;0.00;;;19.70;51.40;;;;;;5114070;28;20138;-81
2022/04/19 11:50:31;;;;;;;0.00;0.00;;;20.00;50.90;;;;;;5097320;28;20054;-81
2022/04/19 11:53:00;;;;;;;0.10;0.10;;;20.10;50.20;;;;;;5114318;28;20126;-81
2022/04/19 11:55:27;;;;;;;0.00;0.00;;;20.10;50.20;;;;;;5097355;28;20131;-81
2022/04/19 11:58:08;;;;;;;0.00;0.00;;;20.10;49.40;;;;;;5114168;28;20043;-81
2022/04/19 12:00:34;;;;;;;0.00;0.00;;;20.10;49.20;;;;;;5097475;28;20043;-82
2022/04/19 12:03:04;;;;;;;0.00;0.00;;;19.90;48.20;;;;;;5097256;28;20056;-82
2022/04/19 12:05:30;;;;;;;0.00;0.00;;;19.70;48.40;;;;;;5097214;28;20144;-81
2022/04/19 12:07:57;;;;;;;0.00;0.00;;;19.70;48.70;;;;;;5113772;28;20380;-81
2022/04/19 12:10:23;;;;;;;0.00;0.00;;;19.70;48.70;;;;;;5114125;28;20051;-82
2022/04/19 12:12:50;;;;;;;0.00;0.00;;;19.60;48.30;;;;;;5097058;28;20118;-81
2022/04/19 12:15:39;;;;;;;0.00;0.00;;;19.80;50.10;;;;;;5113936;28;20044;-82
2022/04/19 12:18:05;;;;;;;0.00;0.00;;;20.00;50.70;;;;;;5113520;28;20491;-81
2022/04/19 12:20:42;;;;;;;0.00;0.00;;;20.00;49.20;;;;;;5096666;28;20058;-81
2022/04/19 12:23:17;;;;;;;1.38;0.30;;;20.00;48.50;;;;;;5096935;28;20139;-82
2022/04/19 12:25:56;;;;;;;0.00;0.00;;;20.30;50.20;;;;;;5113814;28;20123;-82
2022/04/19 12:28:21;;;;;;;0.10;0.10;;;20.20;50.90;;;;;;5113339;28;20040;-82
2022/04/19 12:30:47;;;;;;;0.00;0.00;;;20.30;48.10;;;;;;5113646;28;20135;-82
2022/04/19 12:33:16;;;;;;;0.05;0.05;;;20.30;49.00;;;;;;5096722;28;20058;-82
2022/04/19 12:35:42;;;;;;;0.00;0.00;;;20.20;48.60;;;;;;5113839;28;20043;-82
2022/04/19 12:38:13;;;;;;;0.10;0.10;;;20.40;49.20;;;;;;5113680;28;20055;-82
2022/04/19 12:40:40;;;;;;;0.00;0.00;;;20.60;50.50;;;;;;5113340;28;20058;-82
2022/04/19 12:43:06;;;;;;;0.00;0.00;;;20.80;51.10;;;;;;5113192;28;20047;-82
2022/04/19 12:45:36;;;;;;;0.03;0.03;;;20.60;47.10;;;;;;5113776;28;20062;-82
2022/04/19 12:48:07;;;;;;;0.05;0.05;;;20.60;48.10;;;;;;5095890;28;20060;-81
2022/04/19 12:50:33;;;;;;;1.52;0.10;;;20.50;48.10;;;;;;5113427;28;20088;-81
2022/04/19 12:52:59;;;;;;;0.00;0.00;;;20.40;47.30;;;;;;5096534;28;20055;-82
2022/04/19 12:55:32;;;;;;;0.00;0.00;;;20.50;47.30;;;;;;5114102;28;20347;-82
2022/04/19 12:58:10;;;;;;;0.00;0.00;;;20.60;48.10;;;;;;5096305;28;20051;-82
2022/04/19 13:00:36;;;;;;;0.00;0.00;;;20.70;47.50;;;;;;5113128;28;20433;-82
2022/04/19 13:03:03;;;;;;;0.00;0.00;;;20.80;47.50;;;;;;5096193;28;20372;-82
2022/04/19 13:13:53;;;;;;;0.00;0.00;;;20.70;47.50;;;;;;5095070;28;20564;-81
2022/04/19 13:16:18;;;;;;;0.08;0.00;;;20.40;47.30;;;;;;5095012;28;20075;-82
2022/04/19 13:18:44;;;;;;;0.00;0.00;;;20.50;46.40;;;;;;5078085;28;20186;-81
2022/04/19 13:21:10;;;;;;;0.00;0.00;;;20.60;46.90;;;;;;5095051;28;20407;-81
2022/04/19 13:23:35;;;;;;;0.10;0.10;;;20.60;46.60;;;;;;5078149;28;20113;-81
2022/04/19 13:26:01;;;;;;;0.10;0.00;;;20.50;46.30;;;;;;5095176;28;20040;-81
2022/04/19 13:28:26;;;;;;;0.00;0.00;;;20.30;46.20;;;;;;5094434;28;20050;-81
2022/04/19 13:30:53;;;;;;;0.10;0.00;;;20.50;48.30;;;;;;5077984;28;20106;-81
2022/04/19 13:33:19;;;;;;;0.00;0.00;;;20.60;47.40;;;;;;5094724;28;20040;-81
2022/04/19 13:35:44;;;;;;;0.00;0.00;;;20.70;46.20;;;;;;5094847;28;20089;-81
2022/04/19 13:38:25;;;;;;;0.68;0.20;;;20.90;47.50;;;;;;5094870;28;20051;-81
2022/04/19 13:40:52;;;;;;;0.00;0.00;;;20.60;45.50;;;;;;5094843;28;20497;-81
2022/04/19 13:43:18;;;;;;;0.10;0.00;;;20.40;45.90;;;;;;5094088;28;20546;-81
2022/04/19 13:45:43;;;;;;;0.00;0.00;;;20.40;46.80;;;;;;5094710;28;20079;-81
2022/04/19 13:48:09;;;;;;;0.00;0.00;;;20.60;47.60;;;;;;5094370;28;20055;-81
2022/04/19 13:50:36;;;;;;;0.00;0.00;;;20.80;46.50;;;;;;5105418;28;20134;-81